Time;durP1;ratioP1;P1;durP2;ratioP2;P2;SDS_P1;SDS_P2;PMS_P1;PMS_P2;Temp;Humidity;BMP_temperature;BMP_pressure;BME280_temperature;BME280_humidity;BME280_pressure;Samples;Min_cycle;Max_cycle;Signal;HPM_P1;HPM_P2
2024/02/04 00:00:21;;;;;;;15.53;3.40;;;;;;;6.72;100.00;101065.81;5064538;28;20260;-73
2024/02/04 00:02:47;;;;;;;18.83;3.50;;;;;;;7.28;100.00;101116.56;5063229;28;20206;-72
2024/02/04 00:05:12;;;;;;;22.07;3.67;;;;;;;7.20;100.00;101061.38;5061674;28;21509;-72
2024/02/04 00:07:38;;;;;;;19.33;4.37;;;;;;;7.25;100.00;101049.19;5064419;28;20187;-72
2024/02/04 00:10:04;;;;;;;11.83;2.87;;;;;;;6.96;100.00;100971.63;5059410;28;20214;-72
2024/02/04 00:12:29;;;;;;;15.23;3.13;;;;;;;7.25;100.00;100981.69;5057979;28;20193;-72
2024/02/04 00:14:54;;;;;;;14.87;3.80;;;;;;;7.17;100.00;100931.00;5059408;28;20440;-72
2024/02/04 00:17:20;;;;;;;11.47;2.90;;;;;;;6.83;100.00;100886.84;5061534;28;20259;-73
2024/02/04 00:19:45;;;;;;;14.87;3.50;;;;;;;7.10;100.00;100916.72;5059965;28;20206;-73
2024/02/04 00:22:11;;;;;;;12.70;2.97;;;;;;;6.93;100.00;100895.47;5065882;28;20658;-72
2024/02/04 00:24:36;;;;;;;13.83;2.73;;;;;;;6.88;100.00;100875.66;5068491;28;20178;-72
2024/02/04 00:27:02;;;;;;;11.57;3.43;;;;;;;7.22;100.00;100936.66;5062804;28;20182;-72
2024/02/04 00:29:28;;;;;;;17.50;3.30;;;;;;;7.26;100.00;100935.31;5057673;28;20275;-72
2024/02/04 00:31:53;;;;;;;12.83;3.83;;;;;;;7.02;100.00;100930.91;5065930;28;20462;-73
2024/02/04 00:34:19;;;;;;;12.27;2.83;;;;;;;6.95;100.00;100937.97;5068250;28;20260;-72
2024/02/04 00:36:44;;;;;;;14.93;3.50;;;;;;;7.02;100.00;101018.94;5057242;28;20191;-72
2024/02/04 00:39:09;;;;;;;11.87;3.63;;;;;;;7.00;100.00;101027.13;5061556;28;20274;-72
2024/02/04 00:41:35;;;;;;;13.43;2.67;;;;;;;6.43;100.00;100920.63;5065039;28;20174;-73
2024/02/04 00:44:01;;;;;;;14.03;3.80;;;;;;;7.06;100.00;101038.09;5067246;28;20202;-72
2024/02/04 00:46:27;;;;;;;10.73;3.33;;;;;;;7.09;100.00;101035.06;5066634;28;20699;-72
2024/02/04 00:48:52;;;;;;;14.60;3.30;;;;;;;6.79;100.00;101003.66;5066731;28;20629;-72
2024/02/04 00:51:19;;;;;;;12.73;3.13;;;;;;;6.72;100.00;101015.19;5065926;28;20654;-72
2024/02/04 00:53:45;;;;;;;18.90;3.57;;;;;;;6.90;100.00;101045.13;5062602;28;20183;-72
2024/02/04 00:56:11;;;;;;;12.63;2.57;;;;;;;6.55;100.00;101044.50;5060061;28;20455;-73
2024/02/04 00:58:37;;;;;;;16.60;3.37;;;;;;;6.82;100.00;101071.81;5061798;28;20468;-73
2024/02/04 01:01:02;;;;;;;18.87;2.93;;;;;;;6.26;100.00;101006.88;5059380;28;20441;-72
2024/02/04 01:03:28;;;;;;;18.73;3.10;;;;;;;6.76;100.00;101083.97;5064416;28;20452;-72
2024/02/04 01:05:53;;;;;;;15.33;2.93;;;;;;;6.73;100.00;101097.63;5068877;28;20189;-73
2024/02/04 01:08:19;;;;;;;12.00;2.47;;;;;;;6.57;100.00;101071.84;5060260;28;20194;-73
2024/02/04 01:10:44;;;;;;;10.30;2.87;;;;;;;6.32;100.00;101027.53;5064077;28;20198;-73
2024/02/04 01:13:10;;;;;;;11.60;2.90;;;;;;;6.73;100.00;101086.16;5060592;28;20198;-72
2024/02/04 01:15:35;;;;;;;19.37;3.43;;;;;;;6.27;100.00;101019.19;5063366;28;20182;-74
2024/02/04 01:18:00;;;;;;;13.93;2.50;;;;;;;6.68;100.00;101076.00;5062650;28;20242;-72
2024/02/04 01:20:26;;;;;;;12.93;2.80;;;;;;;6.51;100.00;101069.00;5064942;28;20259;-72
2024/02/04 01:22:52;;;;;;;15.10;2.70;;;;;;;6.63;100.00;101075.66;5067890;28;20541;-72
2024/02/04 01:25:18;;;;;;;12.73;2.63;;;;;;;6.60;100.00;101080.50;5065322;28;20444;-73
2024/02/04 01:27:43;;;;;;;18.97;3.20;;;;;;;6.32;100.00;101032.84;5063420;28;20613;-73
2024/02/04 01:30:09;;;;;;;13.70;2.93;;;;;;;6.29;100.00;101017.19;5069171;28;20210;-72
2024/02/04 01:32:34;;;;;;;14.83;2.83;;;;;;;5.18;100.00;100868.50;5061105;28;20717;-73
2024/02/04 01:35:00;;;;;;;17.17;2.97;;;;;;;6.36;100.00;101034.16;5068181;28;20679;-71
2024/02/04 01:37:25;;;;;;;13.47;2.63;;;;;;;6.46;100.00;101055.34;5060692;28;21787;-72
2024/02/04 01:39:50;;;;;;;16.17;2.80;;;;;;;6.43;100.00;101037.84;5060960;28;20883;-72
2024/02/04 01:42:16;;;;;;;12.50;2.50;;;;;;;6.03;100.00;100983.56;5062820;28;20725;-72
2024/02/04 01:44:42;;;;;;;13.37;3.03;;;;;;;6.55;100.00;101057.00;5061959;28;20197;-72
2024/02/04 01:47:07;;;;;;;14.07;2.60;;;;;;;5.38;100.00;100866.34;5056129;28;20194;-72
2024/02/04 01:49:33;;;;;;;13.43;2.37;;;;;;;6.44;100.00;101036.00;5059451;28;20461;-72
2024/02/04 01:52:00;;;;;;;14.90;2.57;;;;;;;6.25;100.00;101008.72;5053642;28;20328;-73
2024/02/04 01:54:27;;;;;;;15.50;2.00;;;;;;;5.88;100.00;100967.38;5064171;28;20429;-72
2024/02/04 01:56:55;;;;;;;14.23;2.40;;;;;;;5.56;100.00;100904.31;5070663;28;20942;-72
2024/02/04 01:59:28;;;;;;;18.60;2.90;;;;;;;6.41;100.00;101037.19;5066253;28;20539;-72
2024/02/04 02:01:53;;;;;;;11.63;2.10;;;;;;;6.50;100.00;101019.34;5064575;28;20444;-72
2024/02/04 02:04:20;;;;;;;12.47;2.83;;;;;;;5.64;100.00;100888.34;5068935;28;20922;-72
2024/02/04 02:06:46;;;;;;;12.07;3.37;;;;;;;5.13;100.00;100807.81;5059664;28;20179;-72
2024/02/04 02:09:12;;;;;;;19.13;3.37;;;;;;;6.36;100.00;100982.72;5066893;28;20948;-72
2024/02/04 02:11:42;;;;;;;15.23;3.53;;;;;;;6.16;100.00;100979.56;5070229;28;20198;-72
2024/02/04 02:14:16;;;;;;;15.00;2.93;;;;;;;6.25;100.00;100989.22;5068942;28;20433;-72
2024/02/04 02:16:47;;;;;;;13.30;2.03;;;;;;;6.27;100.00;100976.56;5062866;28;20446;-72
2024/02/04 02:19:34;;;;;;;14.40;2.30;;;;;;;6.19;100.00;100977.44;5058694;28;21160;-72
2024/02/04 02:22:16;;;;;;;14.10;2.43;;;;;;;6.15;100.00;100967.25;5056793;28;20466;-72
2024/02/04 02:24:42;;;;;;;15.87;2.50;;;;;;;6.23;100.00;100964.59;5072489;28;20499;-72
2024/02/04 02:27:08;;;;;;;9.30;2.10;;;;;;;6.27;100.00;100957.94;5068156;28;20435;-72
2024/02/04 02:29:33;;;;;;;12.03;2.30;;;;;;;5.14;100.00;100793.53;5057239;28;20985;-72
2024/02/04 02:32:01;;;;;;;13.77;2.83;;;;;;;6.08;100.00;100943.13;5064368;28;20649;-72
2024/02/04 02:34:26;;;;;;;13.00;2.33;;;;;;;6.19;100.00;100953.44;5066758;28;20189;-72
2024/02/04 02:37:00;;;;;;;14.67;2.50;;;;;;;6.19;100.00;100950.78;5065529;28;20479;-72
2024/02/04 02:39:37;;;;;;;16.97;2.60;;;;;;;6.13;100.00;100958.59;5066499;28;20199;-72
2024/02/04 02:42:05;;;;;;;17.67;2.50;;;;;;;6.14;100.00;100949.63;5060015;28;20527;-72
2024/02/04 02:44:31;;;;;;;13.40;2.53;;;;;;;6.26;100.00;100941.13;5068008;28;20886;-72
2024/02/04 02:46:59;;;;;;;13.40;2.70;;;;;;;6.17;100.00;100938.63;5063417;28;20441;-73
2024/02/04 02:49:24;;;;;;;18.23;2.33;;;;;;;5.46;100.00;100807.00;5066230;28;21429;-72
2024/02/04 02:51:50;;;;;;;11.53;2.57;;;;;;;6.23;100.00;100914.81;5061332;28;20602;-72
2024/02/04 02:54:15;;;;;;;13.13;2.47;;;;;;;5.53;100.00;100824.00;5068020;28;20199;-72
2024/02/04 02:56:41;;;;;;;14.50;2.53;;;;;;;5.54;100.00;100825.66;5067069;28;20194;-72
2024/02/04 02:59:08;;;;;;;14.73;2.13;;;;;;;5.72;100.00;100863.56;5062769;28;20194;-72
2024/02/04 03:01:33;;;;;;;17.23;2.70;;;;;;;6.05;100.00;100920.34;5056681;28;20195;-72
2024/02/04 03:03:58;;;;;;;12.50;2.57;;;;;;;6.07;100.00;100922.81;5061321;28;21022;-72
2024/02/04 03:06:24;;;;;;;21.90;3.27;;;;;;;6.20;100.00;100925.81;5050014;28;20213;-72
2024/02/04 03:08:50;;;;;;;23.60;3.20;;;;;;;5.93;100.00;100895.06;5054718;28;20225;-72
2024/02/04 03:11:15;;;;;;;13.37;2.90;;;;;;;6.08;100.00;100938.63;5056358;28;20259;-72
2024/02/04 03:13:40;;;;;;;16.07;3.07;;;;;;;5.74;100.00;100882.84;5061692;28;20202;-72
2024/02/04 03:16:12;;;;;;;22.53;2.53;;;;;;;5.92;100.00;100895.16;5066599;28;20849;-72
2024/02/04 03:18:42;;;;;;;13.97;3.17;;;;;;;6.00;100.00;100933.31;5060177;28;20209;-73
2024/02/04 03:21:15;;;;;;;14.93;2.90;;;;;;;6.02;100.00;100918.00;5070006;28;20473;-72
2024/02/04 03:23:44;;;;;;;17.70;2.60;;;;;;;6.07;100.00;100925.47;5067946;28;21110;-72
2024/02/04 03:26:10;;;;;;;14.57;3.20;;;;;;;5.63;100.00;100853.91;5071442;28;20472;-72
2024/02/04 03:28:36;;;;;;;16.73;3.20;;;;;;;5.16;100.00;100782.72;5071520;28;20721;-73
2024/02/04 03:31:01;;;;;;;20.40;4.63;;;;;;;5.72;100.00;100886.69;5073189;28;21042;-72
2024/02/04 03:33:27;;;;;;;17.37;2.47;;;;;;;5.68;100.00;100880.88;5071796;28;20193;-72
2024/02/04 03:35:52;;;;;;;23.90;2.83;;;;;;;5.84;100.00;100880.03;5060691;28;20534;-72
2024/02/04 03:38:18;;;;;;;18.03;3.03;;;;;;;6.06;100.00;100918.50;5069612;28;20186;-72
2024/02/04 03:40:44;;;;;;;12.23;2.63;;;;;;;5.51;100.00;100839.28;5068259;28;20187;-72
2024/02/04 03:43:10;;;;;;;18.17;3.07;;;;;;;6.06;100.00;100924.66;5066751;28;20600;-72
2024/02/04 03:45:38;;;;;;;17.47;3.30;;;;;;;6.02;100.00;100927.81;5070173;28;20435;-72
2024/02/04 03:48:04;;;;;;;21.43;3.17;;;;;;;5.66;100.00;100845.59;5069049;28;20174;-72
2024/02/04 03:50:29;;;;;;;19.80;2.80;;;;;;;6.02;100.00;100903.88;5062566;28;20530;-72
2024/02/04 03:52:55;;;;;;;14.67;2.67;;;;;;;5.99;100.00;100934.31;5070154;28;20441;-72
2024/02/04 03:55:20;;;;;;;14.53;3.40;;;;;;;4.43;100.00;100661.22;5059082;28;20213;-72
2024/02/04 03:57:46;;;;;;;14.20;2.40;;;;;;;5.89;100.00;100907.81;5048779;28;20202;-72
2024/02/04 04:00:12;;;;;;;16.57;3.10;;;;;;;6.09;100.00;100928.81;5059894;28;20202;-72
2024/02/04 04:02:37;;;;;;;15.10;3.13;;;;;;;4.24;100.00;100678.25;5059580;28;20600;-72
2024/02/04 04:05:03;;;;;;;17.47;3.10;;;;;;;6.05;100.00;100906.19;5061020;28;20440;-72
2024/02/04 04:07:28;;;;;;;16.07;2.90;;;;;;;6.00;100.00;100881.88;5053210;28;20401;-72
2024/02/04 04:09:54;;;;;;;15.93;2.93;;;;;;;5.43;100.00;100786.88;5049657;28;20207;-72
2024/02/04 04:12:19;;;;;;;13.87;2.50;;;;;;;5.78;100.00;100886.00;5054342;28;20198;-72
2024/02/04 04:14:45;;;;;;;17.77;2.90;;;;;;;4.96;100.00;100737.84;5061991;28;20190;-72
2024/02/04 04:17:10;;;;;;;14.37;3.13;;;;;;;5.18;100.00;100751.50;5048853;28;20187;-72
2024/02/04 04:19:36;;;;;;;18.60;2.77;;;;;;;5.62;100.00;100846.94;5066323;28;20415;-72
2024/02/04 04:22:03;;;;;;;14.50;2.60;;;;;;;5.54;100.00;100812.34;5045078;28;20182;-71
2024/02/04 04:24:29;;;;;;;14.73;2.57;;;;;;;6.10;100.00;100895.84;5058968;28;21653;-72
2024/02/04 04:26:54;;;;;;;19.60;2.90;;;;;;;4.95;100.00;100714.94;5049199;28;20455;-72
2024/02/04 04:29:20;;;;;;;15.57;2.57;;;;;;;5.78;100.00;100864.72;5055636;28;20224;-72
2024/02/04 04:31:45;;;;;;;17.93;2.77;;;;;;;6.11;100.00;100917.00;5059248;28;20205;-72
2024/02/04 04:34:11;;;;;;;12.57;2.20;;;;;;;6.00;100.00;100895.19;5055745;28;21149;-72
2024/02/04 04:36:36;;;;;;;14.30;3.00;;;;;;;5.48;100.00;100778.44;5061457;28;20608;-72
2024/02/04 04:39:02;;;;;;;10.13;2.20;;;;;;;5.77;100.00;100828.47;5064975;28;20242;-72
2024/02/04 04:41:28;;;;;;;19.37;2.80;;;;;;;6.20;100.00;100885.84;5055933;28;20225;-72
2024/02/04 04:43:53;;;;;;;16.37;3.00;;;;;;;6.10;100.00;100878.06;5062947;28;20448;-73
2024/02/04 04:46:19;;;;;;;12.37;2.70;;;;;;;6.11;100.00;100879.72;5063468;28;20190;-72
2024/02/04 04:48:45;;;;;;;18.87;3.70;;;;;;;5.61;100.00;100797.34;5064453;28;20199;-72
2024/02/04 04:51:13;;;;;;;16.13;3.27;;;;;;;6.18;100.00;100881.69;5061320;28;20468;-72
2024/02/04 04:53:39;;;;;;;18.30;2.67;;;;;;;6.02;100.00;100842.63;5056744;28;20629;-72
2024/02/04 04:56:05;;;;;;;16.50;3.40;;;;;;;6.06;100.00;100851.91;5065709;28;20440;-72
2024/02/04 04:58:30;;;;;;;18.30;2.90;;;;;;;5.81;100.00;100819.13;5064723;28;20267;-72
2024/02/04 05:00:55;;;;;;;18.63;3.57;;;;;;;6.25;100.00;100856.88;5075526;28;20505;-72
2024/02/04 05:03:21;;;;;;;16.03;2.90;;;;;;;5.28;100.00;100698.13;5061560;28;20191;-72
2024/02/04 05:05:46;;;;;;;16.20;3.17;;;;;;;5.93;100.00;100808.97;5058358;28;20223;-72
2024/02/04 05:08:14;;;;;;;20.00;3.30;;;;;;;6.25;100.00;100861.34;5058253;28;20232;-72
2024/02/04 05:10:39;;;;;;;17.10;3.03;;;;;;;5.53;100.00;100738.84;5058732;28;20206;-72
2024/02/04 05:13:04;;;;;;;12.90;3.07;;;;;;;6.27;100.00;100856.69;5060864;28;20451;-72
2024/02/04 05:15:30;;;;;;;13.03;3.03;;;;;;;6.24;100.00;100859.72;5066343;28;20617;-72
2024/02/04 05:17:55;;;;;;;15.73;2.87;;;;;;;5.30;100.00;100690.84;5061106;28;20190;-72
2024/02/04 05:20:21;;;;;;;19.90;4.50;;;;;;;6.27;100.00;100844.22;5064451;28;20198;-72
2024/02/04 05:22:46;;;;;;;20.00;3.87;;;;;;;5.77;100.00;100762.75;5063774;28;20183;-72
2024/02/04 05:25:12;;;;;;;18.23;3.20;;;;;;;6.11;100.00;100813.13;5059549;28;20198;-72
2024/02/04 05:27:37;;;;;;;14.57;2.50;;;;;;;5.76;100.00;100750.44;5064534;28;20183;-72
2024/02/04 05:30:03;;;;;;;14.00;2.73;;;;;;;6.25;100.00;100824.94;5058891;28;20930;-72
2024/02/04 05:32:28;;;;;;;14.90;3.03;;;;;;;6.08;100.00;100794.84;5065646;28;20222;-72
2024/02/04 05:34:54;;;;;;;14.00;2.70;;;;;;;6.34;100.00;100850.53;5066295;28;20486;-72
2024/02/04 05:37:19;;;;;;;17.90;3.33;;;;;;;6.07;100.00;100811.78;5067045;28;20220;-72
2024/02/04 05:39:45;;;;;;;17.93;3.67;;;;;;;5.55;100.00;100710.22;5057976;28;20199;-72
2024/02/04 05:42:10;;;;;;;12.87;3.07;;;;;;;5.91;100.00;100763.91;5067681;28;21644;-72
2024/02/04 05:44:36;;;;;;;24.33;3.00;;;;;;;6.00;100.00;100768.22;5067748;28;20549;-72
2024/02/04 05:47:01;;;;;;;17.50;4.40;;;;;;;5.48;100.00;100707.41;5072108;28;20232;-72
2024/02/04 05:49:27;;;;;;;16.53;2.87;;;;;;;5.87;100.00;100775.88;5058640;28;20225;-72
2024/02/04 05:51:52;;;;;;;21.20;3.00;;;;;;;5.44;100.00;100688.31;5070282;28;20190;-72
2024/02/04 05:54:17;;;;;;;17.07;3.23;;;;;;;6.24;100.00;100809.09;5054983;28;20344;-72
2024/02/04 05:56:43;;;;;;;15.03;3.77;;;;;;;6.38;100.00;100812.88;5066196;28;20589;-72
2024/02/04 05:59:08;;;;;;;20.60;3.47;;;;;;;6.08;100.00;100796.66;5065168;28;20198;-72
2024/02/04 06:01:34;;;;;;;21.13;3.80;;;;;;;6.25;100.00;100803.63;5059422;28;20905;-72
2024/02/04 06:03:59;;;;;;;21.57;3.50;;;;;;;5.68;100.00;100737.16;5061834;28;20192;-72
2024/02/04 06:06:25;;;;;;;17.73;3.03;;;;;;;6.47;100.00;100811.84;5065765;28;20288;-72
2024/02/04 06:08:51;;;;;;;17.60;3.30;;;;;;;5.85;100.00;100749.44;5056910;28;20711;-72
2024/02/04 06:11:17;;;;;;;20.00;4.10;;;;;;;6.27;100.00;100801.59;5067466;28;20245;-72
2024/02/04 06:13:44;;;;;;;20.17;4.20;;;;;;;6.00;100.00;100740.78;5068806;28;20935;-72
2024/02/04 06:16:11;;;;;;;19.23;3.70;;;;;;;6.42;100.00;100824.84;5062333;28;20232;-72
2024/02/04 06:18:37;;;;;;;22.53;4.30;;;;;;;6.42;100.00;100832.84;5070228;28;20926;-72
2024/02/04 06:21:03;;;;;;;20.40;2.77;;;;;;;6.25;100.00;100811.59;5061529;28;20476;-72
2024/02/04 06:23:29;;;;;;;21.53;4.00;;;;;;;6.31;100.00;100829.56;5071122;28;20620;-72
2024/02/04 06:25:54;;;;;;;15.40;2.70;;;;;;;6.45;100.00;100830.69;5057648;28;20591;-72
2024/02/04 06:28:20;;;;;;;21.30;3.23;;;;;;;6.41;100.00;100829.34;5059217;28;24039;-72
2024/02/04 06:30:45;;;;;;;10.50;2.50;;;;;;;6.36;100.00;100797.06;5063602;28;20218;-72
2024/02/04 06:33:11;;;;;;;15.83;2.87;;;;;;;6.02;100.00;100765.41;5063401;28;20499;-72
2024/02/04 06:35:36;;;;;;;19.60;3.73;;;;;;;6.23;100.00;100776.31;5071560;28;20193;-72
2024/02/04 06:38:01;;;;;;;23.73;3.20;;;;;;;6.34;100.00;100807.09;5059052;28;20186;-72
2024/02/04 06:40:27;;;;;;;25.77;4.07;;;;;;;6.40;100.00;100817.03;5059985;28;20712;-72
2024/02/04 06:42:55;;;;;;;16.70;3.73;;;;;;;5.95;100.00;100719.16;5065810;28;20299;-72
2024/02/04 06:45:20;;;;;;;15.33;3.40;;;;;;;6.08;100.00;100770.03;5073402;28;20613;-72
2024/02/04 06:47:45;;;;;;;20.00;2.87;;;;;;;6.23;100.00;100770.16;5066180;28;20448;-72
2024/02/04 06:50:14;;;;;;;17.57;3.10;;;;;;;6.35;100.00;100806.06;5064102;28;20214;-72
2024/02/04 06:52:40;;;;;;;18.00;3.27;;;;;;;5.64;100.00;100690.56;5064901;28;20309;-72
2024/02/04 06:55:06;;;;;;;16.60;3.50;;;;;;;6.51;100.00;100830.00;5060772;28;20472;-72
2024/02/04 06:57:31;;;;;;;24.23;3.80;;;;;;;5.57;100.00;100709.06;5061520;28;20910;-72
2024/02/04 06:59:57;;;;;;;18.53;3.20;;;;;;;6.48;100.00;100822.34;5067289;28;21587;-73
2024/02/04 07:02:22;;;;;;;21.80;3.20;;;;;;;5.82;100.00;100730.31;5065032;28;20190;-72
2024/02/04 07:04:47;;;;;;;15.33;3.00;;;;;;;6.44;100.00;100826.34;5059535;28;20190;-72
2024/02/04 07:07:13;;;;;;;23.73;3.90;;;;;;;6.43;100.00;100813.22;5061943;28;20186;-72
2024/02/04 07:09:38;;;;;;;15.07;2.80;;;;;;;6.34;100.00;100828.41;5068757;28;20213;-72
2024/02/04 07:12:04;;;;;;;22.03;3.43;;;;;;;5.93;100.00;100761.94;5066401;28;20196;-72
2024/02/04 07:14:30;;;;;;;19.17;3.30;;;;;;;6.52;100.00;100863.63;5066876;28;20182;-72
2024/02/04 07:16:55;;;;;;;17.80;2.93;;;;;;;6.31;100.00;100844.72;5060291;28;20441;-72
2024/02/04 07:19:20;;;;;;;26.03;2.77;;;;;;;6.05;100.00;100787.19;5062172;28;20213;-72
2024/02/04 07:21:46;;;;;;;22.40;3.37;;;;;;;6.46;100.00;100836.84;5058189;28;20182;-72
2024/02/04 07:24:11;;;;;;;20.37;4.27;;;;;;;6.47;100.00;100846.50;5055424;28;20322;-72
2024/02/04 07:26:37;;;;;;;15.87;2.80;;;;;;;6.46;100.00;100868.81;5069160;28;20315;-72
2024/02/04 07:29:02;;;;;;;17.30;3.40;;;;;;;6.50;100.00;100856.81;5057314;28;20214;-72
2024/02/04 07:31:28;;;;;;;19.80;2.60;;;;;;;6.46;100.00;100845.66;5058809;28;20719;-72
2024/02/04 07:33:53;;;;;;;19.93;3.70;;;;;;;6.42;100.00;100857.69;5062786;28;20294;-72
2024/02/04 07:36:18;;;;;;;15.97;4.03;;;;;;;6.21;100.00;100842.22;5054477;28;20827;-72
2024/02/04 07:38:44;;;;;;;26.60;3.40;;;;;;;6.47;100.00;100897.94;5063317;28;20210;-72
2024/02/04 07:41:09;;;;;;;17.53;2.93;;;;;;;6.56;100.00;100925.41;5056223;28;20203;-72
2024/02/04 07:43:35;;;;;;;15.87;3.37;;;;;;;6.31;100.00;100916.66;5056884;28;20203;-72
2024/02/04 07:46:00;;;;;;;19.43;3.50;;;;;;;6.16;100.00;100902.34;5058425;28;20183;-72
2024/02/04 07:48:26;;;;;;;11.67;2.77;;;;;;;5.60;100.00;100822.31;5054856;28;20738;-72
2024/02/04 07:50:52;;;;;;;19.30;2.93;;;;;;;6.45;100.00;100947.94;5058324;28;20697;-72
2024/02/04 07:53:17;;;;;;;17.93;3.07;;;;;;;6.32;100.00;100963.59;5062861;28;20460;-72
2024/02/04 07:55:43;;;;;;;17.63;3.93;;;;;;;5.92;100.00;100890.66;5062329;28;20186;-72
2024/02/04 07:58:08;;;;;;;18.73;3.23;;;;;;;6.23;100.00;100936.13;5052962;28;20444;-72
2024/02/04 08:00:34;;;;;;;22.43;3.23;;;;;;;6.55;100.00;100983.22;5052573;28;20202;-72
2024/02/04 08:02:59;;;;;;;18.57;3.63;;;;;;;6.64;100.00;101010.69;5057591;28;20183;-72
2024/02/04 08:05:24;;;;;;;21.07;3.80;;;;;;;6.42;100.00;100974.91;5056956;28;20191;-72
2024/02/04 08:07:50;;;;;;;13.60;2.77;;;;;;;6.71;100.00;101018.81;5060745;28;21142;-72
2024/02/04 08:10:15;;;;;;;17.40;3.27;;;;;;;6.22;100.00;100941.59;5065191;28;20696;-72
2024/02/04 08:12:41;;;;;;;19.43;3.97;;;;;;;6.66;100.00;101030.00;5068143;28;20191;-73
2024/02/04 08:15:07;;;;;;;19.83;3.80;;;;;;;6.52;100.00;100988.06;5061017;28;20183;-72
2024/02/04 08:17:33;;;;;;;18.43;3.43;;;;;;;6.47;100.00;100993.03;5069485;28;20190;-72
2024/02/04 08:19:58;;;;;;;20.83;3.33;;;;;;;6.03;100.00;100922.31;5069676;28;20199;-72
2024/02/04 08:22:25;;;;;;;16.07;3.63;;;;;;;6.41;100.00;100969.75;5062331;28;20444;-72
2024/02/04 08:24:50;;;;;;;22.90;3.90;;;;;;;6.16;100.00;100944.94;5066863;28;20448;-72
2024/02/04 08:27:17;;;;;;;18.90;3.73;;;;;;;6.75;100.00;101020.16;5070379;28;20715;-72
2024/02/04 08:29:43;;;;;;;16.37;3.80;;;;;;;6.81;100.00;101022.16;5064199;28;20215;-72
2024/02/04 08:32:09;;;;;;;15.03;3.07;;;;;;;6.33;100.00;100941.25;5037799;28;20452;-72
2024/02/04 08:34:34;;;;;;;20.53;3.83;;;;;;;6.79;100.00;101035.63;5060827;28;20796;-72
2024/02/04 08:36:59;;;;;;;10.63;2.40;;;;;;;6.55;100.00;101011.69;5059720;28;20194;-72
2024/02/04 08:39:25;;;;;;;15.80;3.13;;;;;;;6.88;100.00;101055.13;5074713;28;20256;-72
2024/02/04 08:41:51;;;;;;;15.00;3.73;;;;;;;6.85;100.00;101049.31;5064509;28;20203;-72
2024/02/04 08:44:17;;;;;;;11.60;3.13;;;;;;;6.52;100.00;100996.88;5059191;28;25567;-72
2024/02/04 08:46:42;;;;;;;12.77;3.10;;;;;;;6.34;100.00;100958.94;5061310;28;20195;-72
2024/02/04 08:49:07;;;;;;;17.40;3.40;;;;;;;6.95;100.00;101044.63;5059832;28;20211;-72
2024/02/04 08:51:33;;;;;;;14.87;3.00;;;;;;;6.92;100.00;101056.47;5056487;28;20197;-72
2024/02/04 08:53:58;;;;;;;17.50;2.90;;;;;;;7.06;100.00;101065.63;5063022;28;20737;-72
2024/02/04 08:56:24;;;;;;;10.30;3.10;;;;;;;7.11;100.00;101071.25;5056084;28;20183;-72
2024/02/04 08:58:49;;;;;;;15.47;3.30;;;;;;;6.08;100.00;100912.00;5069495;28;20909;-72
2024/02/04 09:01:15;;;;;;;15.90;2.90;;;;;;;6.43;100.00;100970.41;5058964;28;20637;-72
2024/02/04 09:03:40;;;;;;;17.67;2.93;;;;;;;7.06;100.00;101078.94;5065687;28;20201;-72
2024/02/04 09:06:06;;;;;;;18.67;3.20;;;;;;;6.89;100.00;101048.81;5063378;28;23116;-72
2024/02/04 09:08:31;;;;;;;21.10;3.30;;;;;;;6.84;100.00;101053.81;5065552;28;20194;-72
2024/02/04 09:10:57;;;;;;;15.30;3.13;;;;;;;7.01;100.00;101070.63;5059989;28;20289;-71
2024/02/04 09:13:22;;;;;;;13.37;3.10;;;;;;;7.13;100.00;101053.25;5061038;28;20190;-71
2024/02/04 09:15:49;;;;;;;26.53;4.70;;;;;;;7.20;100.00;101072.06;5059208;28;20178;-72
2024/02/04 09:18:15;;;;;;;17.70;3.70;;;;;;;7.19;100.00;101092.56;5073176;28;20304;-71
2024/02/04 09:20:40;;;;;;;17.87;3.20;;;;;;;6.61;100.00;100988.88;5072378;28;20507;-71
2024/02/04 09:23:06;;;;;;;14.80;2.90;;;;;;;6.94;100.00;101034.94;5074571;28;20183;-71
2024/02/04 09:25:31;;;;;;;17.03;3.83;;;;;;;6.23;100.00;100928.13;5065687;28;20198;-71
2024/02/04 09:27:56;;;;;;;17.40;3.10;;;;;;;6.97;100.00;101053.28;5064051;28;20612;-71
2024/02/04 09:30:22;;;;;;;17.03;3.20;;;;;;;7.12;100.00;101067.59;5074844;28;20888;-71
2024/02/04 09:32:47;;;;;;;16.90;3.17;;;;;;;6.74;100.00;100994.50;5067179;28;20607;-71
2024/02/04 09:35:13;;;;;;;20.17;3.40;;;;;;;7.28;100.00;101090.72;5077459;28;20186;-71
2024/02/04 09:37:38;;;;;;;16.67;3.27;;;;;;;7.30;100.00;101088.72;5073485;28;20210;-71
2024/02/04 09:40:04;;;;;;;13.53;3.20;;;;;;;6.76;100.00;101005.81;5066812;28;20302;-71
2024/02/04 09:42:31;;;;;;;24.70;3.73;;;;;;;6.74;100.00;101013.16;5075634;28;20236;-71
2024/02/04 09:44:57;;;;;;;13.43;3.30;;;;;;;7.37;100.00;101099.53;5070453;28;20443;-72
2024/02/04 09:47:22;;;;;;;18.60;2.90;;;;;;;7.41;100.00;101111.56;5074009;28;20428;-72
2024/02/04 09:49:48;;;;;;;20.23;3.87;;;;;;;7.35;100.00;101093.56;5075488;28;20232;-72
2024/02/04 09:52:20;;;;;;;21.63;3.30;;;;;;;7.45;100.00;101119.03;5073686;28;20221;-71
2024/02/04 09:54:49;;;;;;;15.77;2.80;;;;;;;7.51;100.00;101132.69;5070739;28;20242;-72
2024/02/04 09:57:16;;;;;;;20.60;3.60;;;;;;;7.51;100.00;101127.34;5074328;28;20437;-72
2024/02/04 09:59:44;;;;;;;19.13;3.63;;;;;;;7.31;100.00;101117.06;5077234;28;21412;-71
2024/02/04 10:02:10;;;;;;;19.67;2.80;;;;;;;7.40;100.00;101110.69;5076777;28;20527;-72
2024/02/04 10:04:35;;;;;;;18.83;3.50;;;;;;;6.99;100.00;101029.94;5061315;28;20443;-72
2024/02/04 10:07:01;;;;;;;17.13;3.40;;;;;;;6.71;100.00;100965.50;5058499;28;20959;-72
2024/02/04 10:09:27;;;;;;;14.97;2.57;;;;;;;7.52;100.00;101113.00;5072691;28;20202;-72
2024/02/04 10:11:52;;;;;;;21.93;3.40;;;;;;;7.80;100.00;101150.78;5066451;28;20443;-72
2024/02/04 10:14:20;;;;;;;15.07;2.77;;;;;;;7.12;100.00;101040.09;5061206;28;20235;-71
2024/02/04 10:16:46;;;;;;;13.47;2.80;;;;;;;7.81;100.00;101147.09;5076132;28;20252;-72
2024/02/04 10:19:11;;;;;;;16.13;3.03;;;;;;;7.81;100.00;101147.09;5063332;28;20468;-71
2024/02/04 10:21:37;;;;;;;19.70;3.80;;;;;;;7.80;100.00;101151.59;5056437;28;20479;-71
2024/02/04 10:24:02;;;;;;;13.63;3.03;;;;;;;7.28;100.00;101085.38;5068348;28;20656;-71
2024/02/04 10:26:34;;;;;;;19.63;3.23;;;;;;;7.99;100.00;101170.91;5062819;28;20194;-71
2024/02/04 10:29:01;;;;;;;21.83;3.57;;;;;;;7.54;100.00;101095.81;5072217;28;20237;-71
2024/02/04 10:31:27;;;;;;;14.67;3.00;;;;;;;7.98;100.00;101166.56;5064058;28;20460;-72
2024/02/04 10:33:52;;;;;;;15.10;3.10;;;;;;;7.08;100.00;101034.25;5058222;28;20455;-72
2024/02/04 10:36:18;;;;;;;14.23;2.87;;;;;;;8.13;100.00;101195.06;5065141;28;21238;-72
2024/02/04 10:38:43;;;;;;;18.87;2.93;;;;;;;7.92;100.00;101192.13;5051477;28;20212;-72
2024/02/04 10:41:17;;;;;;;13.77;3.00;;;;;;;8.12;100.00;101208.56;5064906;28;20202;-72
2024/02/04 10:43:44;;;;;;;13.47;2.60;;;;;;;8.18;100.00;101215.06;5062758;28;20214;-72
2024/02/04 10:46:13;;;;;;;17.00;2.90;;;;;;;8.20;100.00;101245.13;5040637;28;20441;-72
2024/02/04 10:48:44;;;;;;;19.07;3.87;;;;;;;7.97;100.00;101232.50;5056349;28;21130;-72
2024/02/04 10:51:14;;;;;;;19.03;3.13;;;;;;;7.88;100.00;101196.97;5058787;28;20512;-72
2024/02/04 10:53:46;;;;;;;13.00;2.70;;;;;;;7.90;100.00;101226.22;5060110;28;20437;-71
2024/02/04 10:56:34;;;;;;;12.67;2.47;;;;;;;8.01;100.00;101267.72;5086113;28;20443;-71
2024/02/04 10:59:03;;;;;;;17.80;2.73;;;;;;;8.03;100.00;101276.41;5073781;28;20502;-71
2024/02/04 11:01:29;;;;;;;13.47;3.30;;;;;;;7.95;100.00;101253.22;5065356;28;20438;-72
2024/02/04 11:03:56;;;;;;;16.67;3.03;;;;;;;8.10;100.00;101258.66;5078122;28;20444;-72
2024/02/04 11:06:23;;;;;;;13.30;2.63;;;;;;;7.86;100.00;101236.38;5070944;28;20513;-71
2024/02/04 11:08:49;;;;;;;13.27;2.60;;;;;;;8.11;100.00;101282.56;5074731;28;21144;-71
2024/02/04 11:11:15;;;;;;;15.97;3.00;;;;;;;7.91;100.00;101236.69;5074009;28;20479;-72